createdAt,value
2022-08-21T00:01:56.134Z,60.09
2022-08-21T00:04:29.250Z,60.28
2022-08-21T00:07:00.779Z,60.17
2022-08-21T00:09:28.758Z,60.74
2022-08-21T00:11:56.481Z,61.43
2022-08-21T00:14:24.519Z,70.68
2022-08-21T00:16:52.360Z,66.37
2022-08-21T00:19:25.885Z,55.04
2022-08-21T00:21:55.628Z,53.44
2022-08-21T00:24:25.215Z,54.62
2022-08-21T00:26:53.402Z,56.01
2022-08-21T00:29:23.864Z,57.78
2022-08-21T00:31:51.567Z,58.37
2022-08-21T00:34:19.284Z,60.00
2022-08-21T00:36:47.374Z,59.92
2022-08-21T00:39:15.525Z,67.27
2022-08-21T00:41:43.956Z,66.48
2022-08-21T00:44:14.941Z,61.26
2022-08-21T00:46:45.060Z,54.50
2022-08-21T00:49:14.427Z,52.60
2022-08-21T00:51:51.244Z,54.27
2022-08-21T00:54:25.672Z,55.37
2022-08-21T00:57:00.621Z,59.07
2022-08-21T00:59:35.745Z,59.18
2022-08-21T01:02:08.259Z,61.05
2022-08-21T01:04:37.200Z,67.14
2022-08-21T01:07:06.477Z,63.09
2022-08-21T01:09:34.624Z,56.27
2022-08-21T01:12:03.252Z,56.64
2022-08-21T01:14:32.189Z,59.38
2022-08-21T01:17:04.106Z,59.39
2022-08-21T01:19:32.127Z,65.22
2022-08-21T01:22:00.781Z,66.14
2022-08-21T01:24:29.433Z,61.27
2022-08-21T01:26:57.837Z,54.56
2022-08-21T01:29:59.756Z,54.15
2022-08-21T01:32:27.881Z,56.58
2022-08-21T01:34:55.618Z,57.48
2022-08-21T01:37:23.855Z,59.55
2022-08-21T01:39:51.723Z,60.22
2022-08-21T01:42:19.419Z,67.13
2022-08-21T01:44:48.339Z,68.63
2022-08-21T01:47:18.257Z,62.53
2022-08-21T01:49:46.602Z,55.23
2022-08-21T01:52:14.622Z,54.23
2022-08-21T01:54:43.042Z,55.71
2022-08-21T01:57:12.552Z,56.77
2022-08-21T01:59:41.267Z,59.30
2022-08-21T02:02:09.045Z,61.45
2022-08-21T02:04:36.876Z,64.42
2022-08-21T02:07:07.090Z,64.25
2022-08-21T02:09:38.181Z,60.46
2022-08-21T02:12:11.795Z,54.78
2022-08-21T02:14:39.742Z,54.31
2022-08-21T02:17:09.850Z,56.08
2022-08-21T02:19:40.603Z,57.73
2022-08-21T02:22:12.707Z,60.46
2022-08-21T02:24:54.784Z,67.45
2022-08-21T02:27:26.524Z,65.13
2022-08-21T02:29:58.072Z,59.00
2022-08-21T02:32:26.824Z,56.98
2022-08-21T02:34:55.784Z,58.49
2022-08-21T02:37:25.419Z,60.98
2022-08-21T02:39:53.263Z,65.13
2022-08-21T02:42:21.396Z,63.60
2022-08-21T02:44:49.143Z,61.45
2022-08-21T02:47:16.831Z,55.44
2022-08-21T02:49:44.740Z,54.22
2022-08-21T02:52:12.960Z,55.94
2022-08-21T02:54:40.736Z,57.28
2022-08-21T02:57:09.244Z,60.45
2022-08-21T02:59:37.269Z,65.43
2022-08-21T03:02:05.201Z,65.12
2022-08-21T03:04:33.427Z,61.64
2022-08-21T03:07:01.649Z,55.15
2022-08-21T03:09:30.009Z,54.59
2022-08-21T03:11:58.703Z,56.49
2022-08-21T03:14:26.626Z,59.14
2022-08-21T03:16:54.338Z,62.92
2022-08-21T03:19:22.016Z,64.76
2022-08-21T03:21:49.905Z,62.64
2022-08-21T03:24:18.094Z,56.04
2022-08-21T03:26:49.244Z,54.22
2022-08-21T03:29:17.753Z,56.46
2022-08-21T03:31:45.641Z,58.07
2022-08-21T03:34:13.366Z,59.73
2022-08-21T03:36:41.520Z,64.82
2022-08-21T03:39:09.311Z,67.59
2022-08-21T03:41:37.359Z,62.65
2022-08-21T03:44:05.744Z,56.36
2022-08-21T03:46:33.476Z,54.64
2022-08-21T03:49:01.953Z,56.52
2022-08-21T03:51:29.778Z,60.15
2022-08-21T03:53:57.433Z,64.24
2022-08-21T03:56:25.117Z,66.35
2022-08-21T03:58:52.997Z,61.47
2022-08-21T04:01:20.811Z,55.41
2022-08-21T04:03:48.926Z,54.01
2022-08-21T04:06:16.857Z,56.78
2022-08-21T04:08:44.712Z,59.61
2022-08-21T04:11:13.740Z,60.98
2022-08-21T04:13:44.377Z,64.55
2022-08-21T04:16:14.453Z,66.22
2022-08-21T04:18:42.677Z,63.64
2022-08-21T04:21:13.498Z,58.95
2022-08-21T04:23:41.901Z,54.24
2022-08-21T04:26:10.337Z,55.56
2022-08-21T04:28:38.053Z,57.27
2022-08-21T04:31:06.448Z,59.26
2022-08-21T04:33:34.243Z,66.43
2022-08-21T04:36:02.687Z,66.22
2022-08-21T04:38:36.629Z,60.48
2022-08-21T04:41:07.524Z,54.23
2022-08-21T04:43:36.205Z,53.71
2022-08-21T04:46:04.382Z,56.33
2022-08-21T04:48:34.029Z,59.03
2022-08-21T04:51:08.888Z,60.67
2022-08-21T04:53:39.831Z,68.49
2022-08-21T04:56:14.081Z,66.92
2022-08-21T04:58:43.749Z,61.46
2022-08-21T05:01:20.433Z,56.62
2022-08-21T05:03:51.762Z,55.34
2022-08-21T05:06:23.253Z,56.29
2022-08-21T05:09:01.662Z,58.73
2022-08-21T05:11:32.728Z,62.89
2022-08-21T05:14:00.803Z,66.97
2022-08-21T05:16:34.321Z,63.50
2022-08-21T05:19:07.678Z,57.24
2022-08-21T05:21:39.851Z,56.35
2022-08-21T05:24:08.502Z,56.81
2022-08-21T05:26:45.496Z,59.24
2022-08-21T05:29:18.281Z,66.98
2022-08-21T05:31:48.647Z,64.87
2022-08-21T05:34:21.480Z,62.21
2022-08-21T05:36:49.346Z,56.92
2022-08-21T05:39:17.842Z,55.70
2022-08-21T05:41:45.683Z,57.35
2022-08-21T05:44:13.400Z,60.29
2022-08-21T05:46:41.676Z,63.95
2022-08-21T05:49:09.618Z,66.18
2022-08-21T05:51:38.250Z,61.92
2022-08-21T05:54:06.213Z,57.15
2022-08-21T05:56:34.739Z,56.62
2022-08-21T05:59:02.423Z,58.95
2022-08-21T06:01:36.899Z,61.20
2022-08-21T06:04:05.381Z,66.02
2022-08-21T06:06:33.656Z,66.81
2022-08-21T06:09:02.021Z,62.08
2022-08-21T06:11:29.731Z,55.96
2022-08-21T06:13:59.132Z,54.54
2022-08-21T06:16:28.264Z,56.84
2022-08-21T06:19:00.739Z,58.29
2022-08-21T06:21:30.950Z,59.50
2022-08-21T06:23:59.244Z,63.13
2022-08-21T06:26:29.106Z,65.69
2022-08-21T06:28:56.867Z,59.93
2022-08-21T06:31:27.701Z,56.49
2022-08-21T06:33:56.781Z,58.87
2022-08-21T06:36:25.776Z,62.89
2022-08-21T06:38:53.748Z,63.20
2022-08-21T06:41:23.943Z,62.47
2022-08-21T06:43:52.434Z,57.24
2022-08-21T06:46:21.066Z,56.79
2022-08-21T06:48:49.045Z,59.53
2022-08-21T06:51:16.871Z,61.42
2022-08-21T06:53:44.761Z,64.81
2022-08-21T06:56:13.091Z,62.48
2022-08-21T06:58:41.157Z,56.43
2022-08-21T07:01:09.201Z,56.42
2022-08-21T07:03:41.808Z,56.48
2022-08-21T07:06:12.156Z,59.82
2022-08-21T07:08:40.323Z,60.84
2022-08-21T07:11:21.215Z,64.86
2022-08-21T07:13:52.181Z,63.62
2022-08-21T07:16:22.375Z,57.01
2022-08-21T07:18:50.873Z,54.74
2022-08-21T07:21:23.879Z,57.51
2022-08-21T07:23:55.095Z,58.49
2022-08-21T07:26:25.347Z,60.19
2022-08-21T07:28:54.342Z,60.38
2022-08-21T07:31:27.247Z,61.43
2022-08-21T07:33:55.672Z,63.20
2022-08-21T07:36:25.528Z,61.22
2022-08-21T07:38:53.537Z,56.61
2022-08-21T07:41:28.648Z,56.92
2022-08-21T07:43:58.747Z,58.77
2022-08-21T07:46:28.450Z,58.72
2022-08-21T07:48:56.233Z,60.26
2022-08-21T07:51:28.879Z,60.98
2022-08-21T07:54:00.229Z,60.87
2022-08-21T07:56:32.089Z,60.05
2022-08-21T07:58:59.825Z,61.33
2022-08-21T08:01:27.961Z,60.96
2022-08-21T08:03:57.275Z,60.61
2022-08-21T08:06:26.998Z,60.68
2022-08-21T08:08:54.940Z,61.23
2022-08-21T08:11:23.672Z,61.20
2022-08-21T08:13:53.741Z,61.79
2022-08-21T08:16:21.527Z,61.64
2022-08-21T08:18:49.780Z,61.16
2022-08-21T08:21:18.915Z,61.39
2022-08-21T08:23:46.633Z,60.73
2022-08-21T08:26:16.814Z,61.61
2022-08-21T08:28:45.025Z,61.62
2022-08-21T08:31:12.732Z,62.81
2022-08-21T08:33:41.038Z,61.00
2022-08-21T08:36:19.989Z,57.42
2022-08-21T08:38:49.292Z,57.77
2022-08-21T08:41:22.679Z,59.15
2022-08-21T08:43:56.046Z,60.99
2022-08-21T08:46:51.414Z,62.01
2022-08-21T08:49:24.319Z,62.38
2022-08-21T08:52:03.480Z,58.02
2022-08-21T08:55:08.828Z,58.01
2022-08-21T08:57:43.260Z,60.24
2022-08-21T09:00:14.923Z,62.17
2022-08-21T09:02:48.007Z,61.83
2022-08-21T09:05:29.754Z,60.80
2022-08-21T09:08:19.114Z,57.14
2022-08-21T09:11:05.809Z,58.64
2022-08-21T09:14:00.119Z,61.13
2022-08-21T09:17:00.280Z,65.56
2022-08-21T09:19:47.468Z,61.73
2022-08-21T09:23:02.391Z,58.18
2022-08-21T09:25:46.909Z,55.26
2022-08-21T09:28:15.922Z,57.22
2022-08-21T09:30:43.731Z,59.71
2022-08-21T09:33:14.641Z,61.29
2022-08-21T09:35:55.403Z,61.26
2022-08-21T09:38:32.844Z,62.05
2022-08-21T09:41:09.408Z,60.72
2022-08-21T09:43:39.499Z,57.42
2022-08-21T09:46:22.319Z,57.67
2022-08-21T09:48:55.234Z,58.49
2022-08-21T09:51:28.792Z,60.69
2022-08-21T09:54:08.487Z,60.92
2022-08-21T09:57:10.997Z,60.62
2022-08-21T09:59:40.241Z,61.56
2022-08-21T10:02:25.973Z,61.94
2022-08-21T10:05:04.377Z,61.57
2022-08-21T10:07:37.197Z,56.74
2022-08-21T10:10:28.108Z,56.35
2022-08-21T10:13:23.329Z,57.79
2022-08-21T10:16:31.135Z,59.38
2022-08-21T10:19:46.575Z,60.45
2022-08-21T10:22:37.841Z,61.21
2022-08-21T10:25:32.307Z,62.00
2022-08-21T10:28:18.554Z,62.36
2022-08-21T10:31:12.091Z,60.70
2022-08-21T10:34:23.712Z,56.97
2022-08-21T10:37:16.252Z,57.99
2022-08-21T10:40:21.841Z,58.66
2022-08-21T10:43:15.097Z,59.92
2022-08-21T10:46:02.341Z,60.36
2022-08-21T10:48:59.688Z,60.01
2022-08-21T10:51:48.589Z,60.06
2022-08-21T10:55:07.396Z,59.83
2022-08-21T10:58:18.021Z,59.79
2022-08-21T11:00:54.758Z,59.37
2022-08-21T11:03:29.769Z,60.32
2022-08-21T11:06:22.907Z,59.44
2022-08-21T11:09:07.249Z,59.33
2022-08-21T11:11:51.528Z,58.53
2022-08-21T11:14:58.885Z,59.43
2022-08-21T11:17:49.701Z,59.12
2022-08-21T11:20:31.524Z,60.30
2022-08-21T11:23:13.035Z,60.21
2022-08-21T11:26:11.980Z,60.36
2022-08-21T11:29:09.607Z,60.48
2022-08-21T11:32:12.397Z,59.96
2022-08-21T11:35:09.069Z,59.36
2022-08-21T11:37:58.131Z,58.94
2022-08-21T11:40:37.905Z,58.53
2022-08-21T11:43:45.089Z,58.58
2022-08-21T11:46:24.566Z,57.70
2022-08-21T11:49:43.694Z,57.27
2022-08-21T11:52:25.163Z,57.82
2022-08-21T11:55:07.494Z,57.78
2022-08-21T11:57:56.702Z,57.68
2022-08-21T12:00:32.110Z,58.09
2022-08-21T12:03:12.193Z,58.90
2022-08-21T12:05:54.631Z,59.19
2022-08-21T12:08:37.978Z,59.34
2022-08-21T12:11:17.833Z,59.45
2022-08-21T12:14:14.694Z,59.14
2022-08-21T12:16:49.968Z,58.55
2022-08-21T12:19:20.895Z,57.74
2022-08-21T12:22:10.230Z,58.80
2022-08-21T12:24:44.782Z,58.00
2022-08-21T12:27:21.030Z,56.85
2022-08-21T12:29:57.466Z,56.07
2022-08-21T12:32:44.779Z,56.05
2022-08-21T12:35:26.602Z,55.89
2022-08-21T12:38:13.929Z,56.43
2022-08-21T12:40:50.145Z,56.27
2022-08-21T12:43:29.049Z,55.21
2022-08-21T12:46:00.130Z,54.12
2022-08-21T12:48:48.930Z,53.15
2022-08-21T12:51:27.801Z,52.07
2022-08-21T12:53:59.229Z,52.26
2022-08-21T12:56:31.830Z,51.96
2022-08-21T12:59:08.885Z,50.82
2022-08-21T13:01:52.659Z,49.48
2022-08-21T13:04:37.653Z,49.02
2022-08-21T13:07:14.016Z,49.44
2022-08-21T13:10:05.556Z,48.56
2022-08-21T13:12:36.669Z,47.90
2022-08-21T13:15:09.095Z,46.97
2022-08-21T13:17:42.867Z,47.03
2022-08-21T13:20:28.371Z,47.89
2022-08-21T13:22:59.520Z,48.46
2022-08-21T13:25:36.039Z,48.87
2022-08-21T13:28:17.113Z,48.93
2022-08-21T13:30:48.916Z,49.18
2022-08-21T13:33:24.125Z,49.44
2022-08-21T13:36:12.547Z,50.60
2022-08-21T13:38:43.282Z,51.04
2022-08-21T13:41:26.801Z,51.59
2022-08-21T13:44:27.282Z,53.51
2022-08-21T13:46:55.941Z,56.23
2022-08-21T13:49:32.468Z,59.55
2022-08-21T13:52:00.249Z,59.85
2022-08-21T13:54:40.845Z,57.70
2022-08-21T13:57:34.296Z,61.17
2022-08-21T14:00:27.336Z,63.52
2022-08-21T14:03:05.945Z,59.29
2022-08-21T14:05:44.750Z,59.24
2022-08-21T14:08:30.513Z,62.64
2022-08-21T14:11:00.765Z,62.97
2022-08-21T14:13:45.229Z,59.93
2022-08-21T14:16:26.512Z,57.48
2022-08-21T14:19:20.795Z,59.41
2022-08-21T14:21:49.161Z,60.85
2022-08-21T14:24:22.829Z,64.51
2022-08-21T14:26:55.581Z,61.50
2022-08-21T14:29:28.573Z,58.28
2022-08-21T14:32:21.718Z,57.38
2022-08-21T14:34:54.542Z,60.24
2022-08-21T14:37:24.945Z,63.50
2022-08-21T14:39:53.396Z,66.26
2022-08-21T14:42:22.093Z,58.91
2022-08-21T14:44:50.018Z,57.63
2022-08-21T14:47:17.804Z,58.88
2022-08-21T14:49:45.565Z,60.75
2022-08-21T14:52:14.196Z,65.41
2022-08-21T14:54:41.913Z,65.52
2022-08-21T14:57:13.316Z,59.07
2022-08-21T14:59:41.467Z,54.89
2022-08-21T15:02:13.573Z,56.72
2022-08-21T15:04:42.893Z,57.48
2022-08-21T15:07:10.630Z,58.23
2022-08-21T15:09:38.883Z,57.74
2022-08-21T15:12:08.432Z,60.21
2022-08-21T15:14:41.296Z,60.60
2022-08-21T15:17:11.944Z,61.66
2022-08-21T15:19:40.709Z,65.23
2022-08-21T15:22:15.551Z,62.67
2022-08-21T15:24:46.784Z,55.70
2022-08-21T15:27:17.921Z,53.51
2022-08-21T15:29:46.320Z,54.10
2022-08-21T15:32:27.192Z,56.39
2022-08-21T15:34:56.913Z,56.86
2022-08-21T15:37:25.859Z,57.74
2022-08-21T15:39:54.892Z,55.59
2022-08-21T15:42:24.930Z,58.19
2022-08-21T15:44:55.260Z,58.63
2022-08-21T15:47:29.538Z,59.22
2022-08-21T15:49:57.434Z,59.37
2022-08-21T15:52:28.559Z,60.84
2022-08-21T15:54:57.024Z,57.43
2022-08-21T15:57:26.137Z,55.99
2022-08-21T16:00:07.625Z,56.46
2022-08-21T16:02:35.343Z,58.25
2022-08-21T16:05:03.514Z,58.27
2022-08-21T16:07:33.284Z,59.93
2022-08-21T16:10:01.008Z,59.94
2022-08-21T16:12:35.605Z,58.16
2022-08-21T16:15:08.571Z,57.41
2022-08-21T16:17:44.551Z,59.29
2022-08-21T16:20:14.613Z,57.43
2022-08-21T16:22:44.610Z,57.90
2022-08-21T16:25:16.173Z,57.66
2022-08-21T16:27:50.994Z,57.82
2022-08-21T16:30:21.059Z,57.32
2022-08-21T16:32:50.669Z,58.09
2022-08-21T16:35:20.644Z,58.28
2022-08-21T16:37:52.980Z,61.21
2022-08-21T16:40:27.740Z,60.02
2022-08-21T16:42:56.431Z,59.63
2022-08-21T16:45:24.140Z,57.95
2022-08-21T16:47:51.884Z,59.22
2022-08-21T16:50:26.116Z,58.91
2022-08-21T16:52:54.525Z,59.05
2022-08-21T16:55:22.266Z,59.34
2022-08-21T16:57:50.482Z,58.61
2022-08-21T17:00:18.378Z,58.92
2022-08-21T17:02:54.847Z,59.06
2022-08-21T17:05:25.637Z,59.51
2022-08-21T17:07:53.473Z,59.68
2022-08-21T17:10:21.800Z,60.45
2022-08-21T17:12:56.825Z,60.21
2022-08-21T17:15:38.265Z,61.14
2022-08-21T17:18:12.255Z,61.73
2022-08-21T17:20:41.168Z,66.13
2022-08-21T17:23:10.289Z,65.69
2022-08-21T17:25:41.653Z,62.36
2022-08-21T17:28:16.129Z,55.45
2022-08-21T17:30:46.230Z,54.24
2022-08-21T17:33:17.479Z,56.89
2022-08-21T17:35:45.781Z,57.12
2022-08-21T17:38:15.074Z,58.09
2022-08-21T17:40:43.903Z,61.34
2022-08-21T17:43:15.142Z,64.50
2022-08-21T17:45:45.033Z,64.13
2022-08-21T17:48:13.226Z,57.47
2022-08-21T17:50:41.252Z,58.10
2022-08-21T17:53:10.444Z,59.08
2022-08-21T17:55:38.470Z,60.42
2022-08-21T17:58:13.423Z,63.79
2022-08-21T18:00:42.666Z,61.65
2022-08-21T18:03:16.837Z,54.64
2022-08-21T18:05:47.980Z,52.57
2022-08-21T18:08:16.419Z,53.60
2022-08-21T18:10:48.511Z,55.14
2022-08-21T18:13:31.598Z,55.94
2022-08-21T18:16:02.394Z,58.03
2022-08-21T18:18:40.446Z,59.42
2022-08-21T18:21:09.484Z,65.49
2022-08-21T18:23:44.510Z,67.98
2022-08-21T18:26:21.202Z,64.01
2022-08-21T18:28:49.066Z,56.95
2022-08-21T18:31:16.810Z,55.33
2022-08-21T18:33:57.847Z,56.37
2022-08-21T18:36:29.805Z,59.63
2022-08-21T18:39:19.356Z,62.04
2022-08-21T18:41:48.574Z,66.77
2022-08-21T18:44:19.927Z,64.19
2022-08-21T18:46:58.163Z,57.88
2022-08-21T18:49:27.630Z,55.44
2022-08-21T18:51:57.385Z,57.91
2022-08-21T18:54:26.602Z,59.40
2022-08-21T18:56:55.279Z,60.45
2022-08-21T18:59:27.729Z,69.07
2022-08-21T19:01:57.087Z,69.35
2022-08-21T19:04:43.778Z,63.72
2022-08-21T19:07:14.492Z,56.98
2022-08-21T19:09:52.689Z,56.28
2022-08-21T19:12:30.428Z,57.58
2022-08-21T19:15:00.504Z,59.63
2022-08-21T19:17:29.832Z,65.62
2022-08-21T19:20:06.358Z,67.02
2022-08-21T19:22:34.256Z,60.99
2022-08-21T19:25:02.091Z,56.39
2022-08-21T19:27:29.883Z,56.01
2022-08-21T19:29:58.397Z,58.54
2022-08-21T19:32:28.399Z,60.60
2022-08-21T19:34:56.140Z,67.39
2022-08-21T19:37:25.938Z,64.42
2022-08-21T19:39:54.248Z,62.11
2022-08-21T19:42:22.553Z,57.54
2022-08-21T19:44:57.407Z,56.07
2022-08-21T19:47:29.367Z,58.65
2022-08-21T19:50:18.037Z,59.63
2022-08-21T19:52:51.410Z,67.99
2022-08-21T19:55:19.504Z,67.72
2022-08-21T19:57:47.279Z,62.96
2022-08-21T20:00:18.217Z,59.58
2022-08-21T20:05:39.645Z,55.70
2022-08-21T20:08:11.748Z,59.14
2022-08-21T20:10:51.326Z,60.31
2022-08-21T20:13:22.193Z,68.04
2022-08-21T20:15:51.969Z,67.44
2022-08-21T20:18:26.769Z,62.43
2022-08-21T20:20:58.689Z,56.87
2022-08-21T20:23:29.967Z,55.68
2022-08-21T20:26:14.831Z,57.39
2022-08-21T20:28:42.560Z,60.10
2022-08-21T20:31:14.586Z,65.04
2022-08-21T20:33:43.882Z,65.50
2022-08-21T20:36:12.649Z,62.49
2022-08-21T20:38:40.556Z,56.86
2022-08-21T20:41:16.287Z,55.25
2022-08-21T20:43:50.868Z,56.89
2022-08-21T20:46:26.421Z,60.10
2022-08-21T20:48:55.687Z,66.34
2022-08-21T20:51:44.926Z,65.68
2022-08-21T20:54:37.166Z,60.82
2022-08-21T20:57:29.902Z,56.03
2022-08-21T21:00:14.894Z,56.49
2022-08-21T21:03:30.190Z,58.53
2022-08-21T21:06:05.676Z,61.91
2022-08-21T21:09:16.422Z,69.22
2022-08-21T21:11:59.122Z,66.76
2022-08-21T21:14:46.219Z,61.21
2022-08-21T21:17:26.814Z,55.49
2022-08-21T21:20:16.692Z,55.10
2022-08-21T21:22:57.679Z,60.23
2022-08-21T21:25:42.542Z,66.09
2022-08-21T21:28:20.277Z,63.57
2022-08-21T21:30:55.576Z,60.72
2022-08-21T21:33:25.935Z,55.42
2022-08-21T21:36:20.519Z,55.30
2022-08-21T21:39:07.683Z,58.47
2022-08-21T21:42:03.724Z,59.87
2022-08-21T21:45:18.567Z,65.69
2022-08-21T21:48:47.595Z,64.43
2022-08-21T21:52:02.526Z,58.83
2022-08-21T21:54:57.457Z,54.67
2022-08-21T21:57:44.072Z,56.05
2022-08-21T22:00:26.357Z,58.85
2022-08-21T22:03:31.238Z,65.52
2022-08-21T22:06:10.597Z,63.31
2022-08-21T22:08:54.476Z,60.52
2022-08-21T22:11:44.781Z,55.12
2022-08-21T22:14:18.751Z,55.89
2022-08-21T22:17:30.425Z,56.98
2022-08-21T22:20:05.225Z,59.37
2022-08-21T22:22:36.305Z,60.01
2022-08-21T22:25:23.160Z,67.97
2022-08-21T22:28:04.711Z,67.74
2022-08-21T22:30:45.312Z,61.97
2022-08-21T22:33:27.913Z,55.88
2022-08-21T22:35:58.968Z,55.43
2022-08-21T22:38:26.601Z,58.31
2022-08-21T22:41:24.094Z,60.87
2022-08-21T22:44:01.980Z,67.86
2022-08-21T22:46:47.818Z,66.10
2022-08-21T22:49:46.902Z,61.79
2022-08-21T22:52:18.805Z,55.98
2022-08-21T22:54:47.666Z,56.48
2022-08-21T22:57:25.152Z,58.94
2022-08-21T23:00:14.067Z,62.30
2022-08-21T23:02:52.387Z,67.52
2022-08-21T23:05:30.580Z,66.40
2022-08-21T23:08:30.757Z,61.00
2022-08-21T23:11:26.365Z,55.52
2022-08-21T23:13:56.147Z,56.88
2022-08-21T23:16:38.817Z,58.45
2022-08-21T23:19:56.420Z,59.81
2022-08-21T23:22:47.253Z,68.03
2022-08-21T23:25:41.541Z,64.02
2022-08-21T23:28:36.990Z,59.08
2022-08-21T23:36:40.394Z,56.88
2022-08-21T23:39:50.228Z,58.56
2022-08-21T23:42:58.871Z,66.65
2022-08-21T23:45:39.063Z,64.62
2022-08-21T23:48:29.901Z,59.92
2022-08-21T23:51:11.984Z,54.23
2022-08-21T23:54:22.643Z,54.90
2022-08-21T23:57:31.284Z,57.84
